Fairfield, Australia
Current Conditions -  °F | °C
As of 8:00 PM on Wednesday 28 Jan 2015 (Local Time) from YSSY Reporting Station
Scattered Clouds Scattered Clouds  
Wind Chill: 66°   Ceiling: Unl
Heat Index: 66°   Visibility: 6mi
Dew Point: 59°   Wind: 20mph
Humidity: 78%   Direction: 210°SSW
Pressure: 29.91"   Gusts: NA
Location:  33.87°S, 150.95°E
Report Text: YSSY 280900Z 21017KT 9999 FEW020 SCT100 19/15 Q1013 NOSIG
Loading
Personal Weather Stations






























Interactive Weather Map New forecast layout! Learn more

10-Day Weather Forecast

Advertisements
Track Severe Weather on mobile